If you wish to contribute or participate in the discussions about articles you are invited to join SKYbrary as a registered user

 Actions

Nörvenich Air Base

From SKYbrary Wiki

ETNN
Airport
ICAO: ETNN
Summary
Name Nörvenich Air Base
Region Europe
Territory Germany DE.gif
Location Nörvenich, North Rhine-Westphalia
Serving Nörvenich
Elevation 117 m
383.858 ft
383.858 ft117 m
Coordinates 50° 49' 54.00" N, 6° 39' 30.00" E
Runways
Designator Length Width Surface ROPS
7/25 2439 m8,001.969 ft
45 m147.638 ft
ASP /


METAR
Observation ETNN 130820Z AUTO 15004KT 9999 // ////// 18/14 Q1010 ///
Station Noervenich
Date/Time 13 October 2019 08:20:00
Wind direction 150°
Wind speed 04 kts
Lowest cloud amount n/a
Temperature 18°C
Dew point 14°C
Humidity 77%
QNH 1010 hPa
Weather condition n/a

Nörvenich Air Base (Fliegerhorst Nörvenich) is a German Air Force air base in Germany.

Maps

Terrain

Loading map...

Airport Layout

Loading map...


Accidents & Serious Incidents at or in vicinity of ETNN

None on SKYbrary